Weather at Daniel K Inouye International Airport

Public forecast

Using degrees Fahrenheit for public forecast. Weather courtesy of forecast.io.

Current aviation weather report (METAR) for Daniel K Inouye International Airport

Retrieved 2022/05/23 08:53 UTC (14 minutes ago):

PHNL 230853Z 06010KT 10SM SCT024 BKN045 BKN050 24/18 A3016 RMK AO2 SLP212 T02440178 51008 VISNO RWY04R

Aviation forecast (TAF) for Daniel K Inouye International Airport

Retrieved 2022/05/23 06:39 UTC (2 hours ago):

TAF PHNL 230537Z 2306/2412 06011KT P6SM FEW025 SCT040 BKN050 FM231000 08009KT P6SM FEW025 SCT045 FM232000 07013G21KT P6SM SCT025 SCT040 FM240600 06011KT P6SM SCT025 SCT040 BKN050